Time;durP1;ratioP1;P1;durP2;ratioP2;P2;SDS_P1;SDS_P2;PMS_P1;PMS_P2;Temp;Humidity;BMP_temperature;BMP_pressure;BME280_temperature;BME280_humidity;BME280_pressure;Samples;Min_cycle;Max_cycle;Signal;HPM_P1;HPM_P2
2023/07/30 00:00:35;;;;;;;7.20;4.30;;;;;;;18.44;70.11;98971.91;107113;1262;73022;-39
2023/07/30 00:03:02;;;;;;;9.30;5.10;;;;;;;18.44;69.82;98970.58;107113;1257;67893;-39
2023/07/30 00:05:30;;;;;;;5.10;4.20;;;;;;;18.38;69.84;98969.91;107138;1262;72660;-39
2023/07/30 00:07:58;;;;;;;7.90;5.00;;;;;;;18.35;69.88;98968.39;107144;1258;59611;-39
2023/07/30 00:10:25;;;;;;;5.20;4.60;;;;;;;18.32;70.01;98966.42;107130;1258;60409;-39
2023/07/30 00:12:53;;;;;;;7.50;4.40;;;;;;;18.28;70.09;98962.58;107148;1257;73865;-39
2023/07/30 00:15:20;;;;;;;6.50;4.40;;;;;;;18.28;70.12;98963.77;107117;1258;66292;-40
2023/07/30 00:17:48;;;;;;;5.30;4.10;;;;;;;18.31;69.76;98962.67;107142;1257;71474;-39
2023/07/30 00:20:15;;;;;;;6.50;5.00;;;;;;;18.31;69.49;98970.27;107117;1261;60549;-39
2023/07/30 00:22:43;;;;;;;5.80;4.20;;;;;;;18.29;69.39;98968.38;107145;1262;60313;-39
2023/07/30 00:25:10;;;;;;;6.00;4.60;;;;;;;18.26;69.56;98966.91;107129;1262;73300;-39
2023/07/30 00:27:38;;;;;;;6.70;4.40;;;;;;;18.23;69.80;98961.65;107135;1258;67928;-39
2023/07/30 00:30:06;;;;;;;6.20;4.30;;;;;;;18.20;69.93;98965.53;107179;1260;71487;-39
2023/07/30 00:32:34;;;;;;;5.10;4.20;;;;;;;18.19;69.86;98967.77;107262;1257;61692;-39
2023/07/30 00:35:03;;;;;;;7.90;4.30;;;;;;;18.20;69.88;98962.33;107118;1258;60512;-39
2023/07/30 00:37:31;;;;;;;7.10;4.50;;;;;;;18.20;69.94;98959.52;107222;1257;73857;-39
2023/07/30 00:39:58;;;;;;;5.70;4.50;;;;;;;18.15;69.95;98957.94;107048;1258;67902;-38
2023/07/30 00:42:27;;;;;;;6.10;4.00;;;;;;;18.10;70.11;98958.58;107091;1258;71486;-39
2023/07/30 00:44:54;;;;;;;7.00;4.50;;;;;;;18.03;70.31;98956.29;107113;1262;60471;-39
2023/07/30 00:47:24;;;;;;;9.10;4.50;;;;;;;17.93;70.87;98954.59;107147;1258;59449;-39
2023/07/30 00:49:52;;;;;;;4.50;4.10;;;;;;;17.90;71.23;98952.52;107060;1257;72650;-39
2023/07/30 00:52:20;;;;;;;8.60;4.10;;;;;;;17.92;71.05;98945.74;107153;1257;66989;-39
2023/07/30 00:54:48;;;;;;;8.10;4.80;;;;;;;17.93;70.86;98946.58;107115;1259;72714;-39
2023/07/30 00:57:16;;;;;;;7.10;4.60;;;;;;;17.92;70.62;98945.98;107146;1262;60317;-39
2023/07/30 00:59:44;;;;;;;11.20;4.50;;;;;;;17.89;70.24;98946.19;107047;1258;60303;-39
2023/07/30 01:02:11;;;;;;;10.50;4.70;;;;;;;17.86;70.15;98944.69;106999;1257;73856;-39
2023/07/30 01:04:41;;;;;;;7.60;4.50;;;;;;;17.80;70.32;98945.88;107099;1257;66833;-39
2023/07/30 01:07:09;;;;;;;6.50;4.80;;;;;;;17.81;70.31;98949.30;107013;1257;72647;-39
2023/07/30 01:09:36;;;;;;;8.80;4.30;;;;;;;17.85;70.02;98953.16;107223;1258;60393;-38
2023/07/30 01:12:05;;;;;;;7.10;4.20;;;;;;;17.84;69.97;98948.48;107188;1260;61128;-39
2023/07/30 01:14:33;;;;;;;6.40;4.40;;;;;;;17.81;69.87;98945.21;107244;1257;73904;-39
2023/07/30 01:17:00;;;;;;;7.10;4.80;;;;;;;17.79;69.98;98942.91;107500;1254;65853;-39
2023/07/30 01:19:28;;;;;;;5.10;4.20;;;;;;;17.75;69.65;98942.44;107476;1254;71536;-39
2023/07/30 01:21:56;;;;;;;5.90;4.70;;;;;;;17.69;69.73;98948.16;107418;1254;61662;-39
2023/07/30 01:24:23;;;;;;;5.80;4.40;;;;;;;17.67;69.64;98948.27;107458;1254;60271;-39
2023/07/30 01:27:16;;;;;;;6.50;4.60;;;;;;;17.69;69.50;98947.15;107508;1254;72417;-39
2023/07/30 01:30:26;;;;;;;5.40;4.10;;;;;;;17.67;69.46;98946.61;107460;1254;67886;-39
2023/07/30 01:32:54;;;;;;;5.60;4.40;;;;;;;17.62;69.47;98947.42;107284;1253;72712;-39
2023/07/30 01:35:22;;;;;;;5.50;4.70;;;;;;;17.57;69.75;98949.03;107310;1254;60077;-39
2023/07/30 01:37:49;;;;;;;6.50;4.30;;;;;;;17.56;69.82;98950.08;107519;1254;60304;-39
2023/07/30 01:40:17;;;;;;;7.30;4.70;;;;;;;17.57;69.84;98948.64;107363;1254;73934;-39
2023/07/30 01:42:44;;;;;;;6.50;4.20;;;;;;;17.59;69.70;98947.53;107467;1253;66339;-39
2023/07/30 01:45:12;;;;;;;8.90;4.10;;;;;;;17.58;69.49;98951.52;107464;1254;72695;-39
2023/07/30 01:47:39;;;;;;;6.30;4.00;;;;;;;17.54;69.40;98951.20;107505;1254;60403;-39
2023/07/30 01:50:08;;;;;;;7.70;4.50;;;;;;;17.50;69.34;98954.31;107434;1254;60329;-39
2023/07/30 01:52:35;;;;;;;8.90;5.10;;;;;;;17.46;69.45;98955.48;107517;1254;72635;-39
2023/07/30 01:55:03;;;;;;;5.70;4.20;;;;;;;17.40;69.72;98956.83;107458;1254;67412;-39
2023/07/30 01:57:33;;;;;;;6.80;4.60;;;;;;;17.37;69.98;98952.63;107427;1254;71952;-39
2023/07/30 02:00:01;;;;;;;10.20;5.40;;;;;;;17.37;70.11;98952.64;107382;1253;60524;-39
2023/07/30 02:02:28;;;;;;;7.50;4.80;;;;;;;17.30;70.41;98958.15;107471;1259;60557;-39
2023/07/30 02:04:56;;;;;;;9.70;4.90;;;;;;;17.22;70.82;98961.24;107433;1254;72722;-39
2023/07/30 02:07:23;;;;;;;9.30;4.50;;;;;;;17.16;70.97;98966.17;107465;1254;67580;-39
2023/07/30 02:09:51;;;;;;;6.80;5.30;;;;;;;17.11;70.88;98968.44;107463;1254;71990;-39
2023/07/30 02:12:19;;;;;;;6.70;4.10;;;;;;;17.08;70.94;98968.48;107430;1253;60499;-39
2023/07/30 02:14:46;;;;;;;6.10;4.30;;;;;;;17.06;70.87;98969.92;107452;1254;60277;-39
2023/07/30 02:17:14;;;;;;;6.00;5.00;;;;;;;16.97;71.18;98971.29;107465;1253;72551;-39
2023/07/30 02:19:42;;;;;;;6.40;5.30;;;;;;;16.87;71.60;98977.13;107454;1253;66779;-39
2023/07/30 02:22:09;;;;;;;6.90;5.20;;;;;;;16.75;72.01;98971.80;107483;1254;71381;-39
2023/07/30 02:24:37;;;;;;;6.50;5.40;;;;;;;16.68;72.56;98971.65;107436;1254;60439;-39
2023/07/30 02:27:05;;;;;;;6.90;5.10;;;;;;;16.67;72.93;98970.56;107505;1253;60359;-39
2023/07/30 02:29:36;;;;;;;6.80;5.00;;;;;;;16.73;73.12;98966.27;107471;1253;72605;-40
2023/07/30 02:32:06;;;;;;;6.90;5.00;;;;;;;16.79;73.11;98964.95;107532;1253;67811;-40
2023/07/30 02:34:34;;;;;;;7.10;5.10;;;;;;;16.84;72.87;98969.65;107399;1253;71478;-40
2023/07/30 02:37:03;;;;;;;7.30;5.50;;;;;;;16.86;72.56;98971.02;107461;1253;60091;-40
2023/07/30 02:39:30;;;;;;;6.40;5.20;;;;;;;16.87;72.21;98969.69;107440;1254;60184;-40
2023/07/30 02:41:58;;;;;;;10.00;5.20;;;;;;;16.86;72.07;98972.20;107290;1254;72992;-40
2023/07/30 02:44:25;;;;;;;8.30;4.80;;;;;;;16.89;71.92;98974.27;107133;1254;67609;-40
2023/07/30 02:46:53;;;;;;;7.10;5.20;;;;;;;16.97;71.74;98978.80;107182;1253;72330;-40
2023/07/30 02:49:21;;;;;;;5.90;4.70;;;;;;;17.02;71.51;98979.30;107361;1258;60034;-40
2023/07/30 02:51:48;;;;;;;6.70;5.00;;;;;;;17.03;71.28;98981.30;107211;1253;60476;-40
2023/07/30 02:54:16;;;;;;;15.50;5.60;;;;;;;17.02;71.01;98982.72;107338;1253;73853;-40
2023/07/30 02:56:44;;;;;;;7.90;5.10;;;;;;;17.01;70.96;98990.64;107348;1253;67606;-40
2023/07/30 02:59:11;;;;;;;8.40;4.60;;;;;;;16.98;71.05;98989.20;107440;1254;71087;-40
2023/07/30 03:01:39;;;;;;;9.10;5.10;;;;;;;17.01;71.15;98990.88;107460;1259;60480;-40
2023/07/30 03:04:07;;;;;;;9.70;4.80;;;;;;;17.06;71.33;98990.35;107275;1253;60313;-40
2023/07/30 03:06:35;;;;;;;7.40;4.60;;;;;;;17.09;71.26;98989.20;107462;1254;72642;-40
2023/07/30 03:09:02;;;;;;;6.10;5.00;;;;;;;17.10;71.17;98989.35;107451;1253;66671;-40
2023/07/30 03:11:30;;;;;;;5.30;4.80;;;;;;;17.09;71.17;98986.23;107272;1253;72676;-40
2023/07/30 03:13:57;;;;;;;5.90;4.70;;;;;;;17.09;71.17;98982.16;107317;1254;59752;-40
2023/07/30 03:16:25;;;;;;;8.20;4.60;;;;;;;17.07;71.26;98980.08;107478;1253;60269;-40
2023/07/30 03:18:52;;;;;;;7.20;4.70;;;;;;;17.09;71.31;98977.86;107482;1253;73917;-40
2023/07/30 03:21:20;;;;;;;6.40;4.70;;;;;;;17.15;71.34;98979.27;107418;1253;67907;-40
2023/07/30 03:23:48;;;;;;;5.90;4.70;;;;;;;17.19;71.58;98978.19;107458;1253;71813;-40
2023/07/30 03:26:16;;;;;;;8.80;4.90;;;;;;;17.23;71.76;98976.41;107462;1256;60541;-40
2023/07/30 03:28:43;;;;;;;7.00;5.00;;;;;;;17.27;72.07;98972.36;107482;1253;60896;-40
2023/07/30 03:31:11;;;;;;;6.40;4.70;;;;;;;17.31;72.11;98972.07;107446;1253;72968;-40
2023/07/30 03:33:43;;;;;;;5.40;4.40;;;;;;;17.36;71.95;98967.69;107486;1258;67895;-40
2023/07/30 03:36:11;;;;;;;7.90;4.70;;;;;;;17.49;71.94;98964.84;107473;1254;71393;-39
2023/07/30 03:38:39;;;;;;;6.70;4.90;;;;;;;17.54;72.03;98959.34;107445;1254;60418;-39
2023/07/30 03:41:07;;;;;;;8.10;5.30;;;;;;;17.58;72.19;98957.02;107578;1253;60376;-39
2023/07/30 03:43:35;;;;;;;6.70;5.50;;;;;;;17.63;72.21;98952.42;107454;1253;72729;-39
2023/07/30 03:46:03;;;;;;;7.60;5.20;;;;;;;17.68;72.61;98956.33;107425;1253;66431;-39
2023/07/30 03:48:30;;;;;;;5.60;5.00;;;;;;;17.76;72.62;98952.21;107434;1253;71478;-39
2023/07/30 03:50:58;;;;;;;8.50;5.00;;;;;;;17.87;72.70;98952.58;107420;1253;60400;-39
2023/07/30 03:53:26;;;;;;;9.00;5.20;;;;;;;17.94;72.98;98948.30;107466;1253;60358;-39
2023/07/30 03:55:54;;;;;;;6.00;5.00;;;;;;;17.99;73.13;98945.61;107279;1253;72547;-39
2023/07/30 03:58:21;;;;;;;7.50;4.90;;;;;;;18.06;73.37;98946.67;107363;1253;67914;-39
2023/07/30 04:00:49;;;;;;;8.50;5.00;;;;;;;18.12;73.28;98950.24;107448;1254;72550;-39
2023/07/30 04:03:16;;;;;;;7.70;4.80;;;;;;;18.23;73.24;98950.29;107248;1253;61671;-39
2023/07/30 04:05:44;;;;;;;6.90;4.50;;;;;;;18.34;73.35;98948.98;107575;1253;60233;-40
2023/07/30 04:08:12;;;;;;;4.80;4.30;;;;;;;18.42;73.24;98952.04;107398;1254;72179;-40
2023/07/30 04:10:39;;;;;;;4.90;4.40;;;;;;;18.50;73.20;98953.84;107504;1254;66625;-40
2023/07/30 04:13:07;;;;;;;5.40;4.50;;;;;;;18.58;73.05;98952.77;107524;1253;72636;-40
2023/07/30 04:15:35;;;;;;;7.10;4.60;;;;;;;18.66;72.80;98951.27;107574;1253;61687;-40
2023/07/30 04:18:03;;;;;;;5.50;4.60;;;;;;;18.77;72.58;98952.55;107600;1252;60133;-40
2023/07/30 04:20:31;;;;;;;8.10;5.10;;;;;;;18.83;72.43;98953.98;107647;1256;72662;-40
2023/07/30 04:22:59;;;;;;;7.80;5.50;;;;;;;18.90;72.40;98950.55;107506;1254;66645;-40
2023/07/30 04:25:26;;;;;;;6.10;5.00;;;;;;;18.96;72.14;98951.35;107607;1254;72648;-40
2023/07/30 04:27:54;;;;;;;5.70;4.70;;;;;;;19.01;72.41;98950.54;107600;1254;59413;-40
2023/07/30 04:30:22;;;;;;;5.70;4.50;;;;;;;19.12;72.36;98952.34;107582;1254;60418;-40
2023/07/30 04:32:49;;;;;;;6.60;4.80;;;;;;;19.24;71.92;98947.05;107607;1254;74136;-40
2023/07/30 04:35:17;;;;;;;5.10;4.60;;;;;;;19.34;72.04;98942.34;107630;1254;66433;-40
2023/07/30 04:37:45;;;;;;;5.80;4.80;;;;;;;19.42;72.15;98948.20;107577;1254;71467;-40
2023/07/30 04:40:12;;;;;;;6.40;4.70;;;;;;;19.50;72.43;98946.48;107550;1253;60437;-40
2023/07/30 04:42:40;;;;;;;5.10;4.60;;;;;;;19.57;72.20;98949.30;107612;1252;59702;-40
2023/07/30 04:45:09;;;;;;;5.40;4.00;;;;;;;19.68;71.72;98944.15;107621;1254;72604;-40
2023/07/30 04:47:40;;;;;;;5.50;3.80;;;;;;;19.81;71.38;98945.95;107361;1253;66895;-40
2023/07/30 04:50:08;;;;;;;5.50;4.40;;;;;;;19.89;70.97;98941.64;107304;1258;72991;-39
2023/07/30 04:52:35;;;;;;;5.00;4.10;;;;;;;19.97;70.55;98945.86;107262;1253;60263;-39
2023/07/30 04:55:04;;;;;;;4.50;4.10;;;;;;;20.00;69.92;98945.14;107564;1253;60403;-39
2023/07/30 04:57:32;;;;;;;5.00;3.80;;;;;;;20.03;69.84;98949.86;107525;1253;73837;-39
2023/07/30 05:00:00;;;;;;;4.00;3.50;;;;;;;20.10;69.93;98953.29;107445;1253;66788;-39
2023/07/30 05:02:28;;;;;;;6.10;4.30;;;;;;;20.23;70.01;98959.25;107518;1253;71383;-39
2023/07/30 05:04:56;;;;;;;6.80;4.40;;;;;;;20.33;70.40;98959.40;107505;1254;60428;-39
2023/07/30 05:07:23;;;;;;;5.00;4.50;;;;;;;20.41;70.51;98960.83;107462;1253;60431;-40
2023/07/30 05:09:51;;;;;;;5.50;5.00;;;;;;;20.49;70.05;98961.02;107445;1254;72599;-39
2023/07/30 05:12:19;;;;;;;9.30;4.80;;;;;;;20.53;69.71;98965.30;107425;1253;65756;-39
2023/07/30 05:14:59;;;;;;;5.50;4.70;;;;;;;20.60;69.33;98966.92;107532;1253;72681;-45
2023/07/30 05:17:30;;;;;;;6.20;5.30;;;;;;;20.70;69.07;98972.45;107262;1253;60467;-38
2023/07/30 05:19:57;;;;;;;6.00;5.00;;;;;;;20.76;69.34;98974.63;107441;1252;60486;-39
2023/07/30 05:22:25;;;;;;;6.90;5.80;;;;;;;20.85;69.27;98969.74;107373;1253;73756;-39
2023/07/30 05:24:52;;;;;;;6.30;4.80;;;;;;;20.93;69.06;98966.43;107439;1253;68349;-39
2023/07/30 05:27:20;;;;;;;6.90;4.20;;;;;;;21.01;67.96;98968.96;107371;1253;71401;-39
2023/07/30 05:29:48;;;;;;;4.30;3.90;;;;;;;21.11;66.05;98970.73;107355;1253;61758;-39
2023/07/30 05:32:16;;;;;;;4.30;3.90;;;;;;;21.19;65.21;98968.52;107427;1253;60498;-39
2023/07/30 05:34:43;;;;;;;5.70;4.10;;;;;;;21.27;65.14;98961.52;107431;1257;73877;-39
2023/07/30 05:37:18;;;;;;;4.50;4.10;;;;;;;21.36;65.31;98964.77;107500;1254;66667;-41
2023/07/30 05:39:46;;;;;;;5.00;4.40;;;;;;;21.45;65.41;98960.08;107430;1257;71916;-39
2023/07/30 05:42:13;;;;;;;6.30;4.60;;;;;;;21.54;65.47;98955.13;107165;1253;60932;-39
2023/07/30 05:44:41;;;;;;;5.40;3.80;;;;;;;21.67;65.07;98957.80;107122;1253;60305;-39
2023/07/30 05:47:08;;;;;;;3.90;3.50;;;;;;;21.81;62.38;98956.39;107175;1253;73812;-40
2023/07/30 05:49:36;;;;;;;6.70;3.50;;;;;;;21.89;60.40;98955.26;107190;1253;67595;-40
2023/07/30 05:52:04;;;;;;;5.30;3.30;;;;;;;21.94;60.51;98954.70;107291;1258;72750;-39
2023/07/30 05:54:31;;;;;;;5.20;3.00;;;;;;;21.98;59.93;98948.65;107399;1254;60164;-40
2023/07/30 05:56:59;;;;;;;4.60;3.90;;;;;;;22.02;60.10;98945.55;107498;1251;60534;-39
2023/07/30 05:59:26;;;;;;;3.90;3.60;;;;;;;22.04;60.53;98943.24;107366;1257;72557;-39
2023/07/30 06:01:55;;;;;;;4.00;3.60;;;;;;;22.07;61.11;98938.27;107405;1251;66710;-40
2023/07/30 06:04:31;;;;;;;3.40;3.00;;;;;;;22.11;61.58;98938.91;107429;1253;72714;-39
2023/07/30 06:07:05;;;;;;;4.40;3.50;;;;;;;22.16;61.28;98934.95;107486;1257;60521;-41
2023/07/30 06:09:33;;;;;;;5.80;3.40;;;;;;;22.21;61.53;98933.38;107455;1251;60346;-41
2023/07/30 06:12:00;;;;;;;4.20;2.90;;;;;;;22.30;60.59;98934.32;107384;1253;73904;-40
2023/07/30 06:14:28;;;;;;;3.30;3.00;;;;;;;22.40;60.37;98931.90;107441;1253;67656;-39
2023/07/30 06:16:55;;;;;;;3.80;2.80;;;;;;;22.50;59.39;98931.31;107321;1253;71787;-38
2023/07/30 06:19:23;;;;;;;3.40;2.60;;;;;;;22.58;58.40;98926.81;107321;1253;60403;-38
2023/07/30 06:21:51;;;;;;;3.20;2.60;;;;;;;22.68;57.88;98926.08;107413;1253;60332;-39
2023/07/30 06:24:18;;;;;;;3.20;2.70;;;;;;;22.78;57.86;98925.08;107382;1253;73889;-39
2023/07/30 06:26:46;;;;;;;3.50;2.70;;;;;;;22.88;56.80;98927.79;107468;1253;67599;-39
2023/07/30 06:29:13;;;;;;;3.40;2.70;;;;;;;22.96;56.07;98929.14;107438;1252;72702;-39
2023/07/30 06:31:41;;;;;;;4.20;2.50;;;;;;;23.01;55.99;98919.56;107484;1253;60337;-39
2023/07/30 06:34:09;;;;;;;2.90;2.60;;;;;;;23.08;56.54;98919.69;107471;1253;60377;-39
2023/07/30 06:36:37;;;;;;;3.10;2.70;;;;;;;23.15;56.64;98920.42;107324;1253;72564;-39
2023/07/30 06:39:04;;;;;;;5.00;3.00;;;;;;;23.24;56.48;98924.11;107308;1253;66757;-38
2023/07/30 06:41:32;;;;;;;3.30;2.70;;;;;;;23.34;56.97;98919.05;107474;1252;72674;-39
2023/07/30 06:44:00;;;;;;;4.70;3.00;;;;;;;23.44;56.10;98919.52;107488;1253;60452;-39
2023/07/30 06:46:27;;;;;;;2.90;2.70;;;;;;;23.50;56.07;98918.20;107497;1255;60312;-39
2023/07/30 06:48:55;;;;;;;3.00;2.70;;;;;;;23.54;56.19;98916.99;107486;1255;73850;-38
2023/07/30 06:51:24;;;;;;;4.60;2.80;;;;;;;23.61;56.21;98913.31;107407;1252;66333;-38
2023/07/30 06:53:52;;;;;;;3.40;2.70;;;;;;;23.70;55.68;98913.72;107396;1253;72991;-38
2023/07/30 06:56:19;;;;;;;4.80;3.00;;;;;;;23.78;54.82;98915.59;107458;1256;60302;-39
2023/07/30 06:58:47;;;;;;;3.80;2.80;;;;;;;23.87;54.74;98915.38;107440;1253;60397;-38
2023/07/30 07:01:14;;;;;;;3.00;2.70;;;;;;;23.97;54.64;98916.95;107385;1258;74372;-38
2023/07/30 07:03:42;;;;;;;4.20;3.00;;;;;;;24.04;54.69;98920.73;107310;1254;67911;-38
2023/07/30 07:06:10;;;;;;;3.70;2.90;;;;;;;24.09;55.43;98925.27;107320;1254;73173;-40
2023/07/30 07:08:39;;;;;;;4.80;3.50;;;;;;;24.11;55.44;98927.34;107384;1254;60460;-39
2023/07/30 07:11:06;;;;;;;3.80;3.20;;;;;;;24.08;55.61;98932.90;107340;1254;60336;-41
2023/07/30 07:13:34;;;;;;;4.10;3.40;;;;;;;24.04;56.24;98934.92;107209;1254;73888;-40
2023/07/30 07:16:01;;;;;;;4.10;3.40;;;;;;;23.98;57.10;98941.11;107232;1254;67882;-41
2023/07/30 07:18:29;;;;;;;5.50;3.70;;;;;;;23.90;57.19;98943.59;107262;1254;72651;-40
2023/07/30 07:20:56;;;;;;;4.60;4.00;;;;;;;23.79;57.24;98942.44;107291;1260;60497;-41
2023/07/30 07:23:24;;;;;;;6.70;4.00;;;;;;;23.68;57.85;98942.10;107347;1254;60393;-40
2023/07/30 07:25:52;;;;;;;5.90;4.20;;;;;;;23.56;58.66;98943.15;107280;1260;72602;-40
2023/07/30 07:28:19;;;;;;;6.50;4.20;;;;;;;23.47;59.83;98942.48;107241;1254;68063;-40
2023/07/30 07:30:47;;;;;;;5.60;3.90;;;;;;;23.44;60.53;98941.33;107272;1254;72739;-40
2023/07/30 07:33:15;;;;;;;4.80;3.50;;;;;;;23.44;60.92;98930.20;107322;1254;60277;-40
2023/07/30 07:35:43;;;;;;;6.80;3.80;;;;;;;23.46;61.17;98927.24;107264;1254;60216;-40
2023/07/30 07:38:10;;;;;;;5.00;3.30;;;;;;;23.48;61.27;98924.65;107267;1254;73881;-41
2023/07/30 07:40:41;;;;;;;5.00;3.90;;;;;;;23.51;61.19;98922.78;107356;1254;66438;-41
2023/07/30 07:43:09;;;;;;;3.90;3.30;;;;;;;23.53;61.06;98918.70;107337;1254;72785;-40
2023/07/30 07:45:36;;;;;;;4.40;3.40;;;;;;;23.54;61.23;98919.60;107302;1254;60189;-40
2023/07/30 07:48:04;;;;;;;4.90;3.70;;;;;;;23.57;61.07;98917.96;107326;1254;60435;-40
2023/07/30 07:50:32;;;;;;;4.90;3.60;;;;;;;23.59;60.91;98917.73;107332;1254;74288;-40
2023/07/30 07:52:59;;;;;;;6.00;3.80;;;;;;;23.60;60.61;98915.09;107363;1254;66797;-40
2023/07/30 07:55:27;;;;;;;4.70;3.60;;;;;;;23.60;60.67;98917.06;107338;1254;71625;-41
2023/07/30 07:57:54;;;;;;;5.20;3.50;;;;;;;23.64;60.42;98915.71;107303;1255;61675;-41
2023/07/30 08:00:22;;;;;;;3.90;3.50;;;;;;;23.70;60.56;98915.45;107408;1253;60657;-41
2023/07/30 08:02:49;;;;;;;4.50;3.50;;;;;;;23.74;60.11;98919.33;107459;1253;74182;-40
2023/07/30 08:05:19;;;;;;;6.40;3.20;;;;;;;23.72;59.66;98923.11;107523;1253;67544;-40
2023/07/30 08:07:47;;;;;;;5.90;3.80;;;;;;;23.67;59.73;98920.88;107495;1253;72710;-40
2023/07/30 08:10:14;;;;;;;5.10;3.40;;;;;;;23.61;59.62;98921.70;107489;1253;61087;-41
2023/07/30 08:12:42;;;;;;;5.40;3.50;;;;;;;23.51;59.99;98926.90;107369;1253;128938;-40
2023/07/30 08:16:32;;;;;;;3.60;3.30;;;;;;;23.33;60.14;98930.38;104124;1291;600240;-38
2023/07/30 08:19:00;;;;;;;5.80;3.40;;;;;;;23.15;60.71;98927.45;106591;1267;59250;-40
2023/07/30 08:21:27;;;;;;;4.20;3.20;;;;;;;23.01;61.45;98926.41;106601;1268;60611;-40
2023/07/30 08:23:55;;;;;;;4.00;3.20;;;;;;;22.93;62.02;98921.67;106591;1268;70630;-39
2023/07/30 08:26:22;;;;;;;3.70;3.10;;;;;;;22.91;62.77;98924.97;106577;1271;67576;-39
2023/07/30 08:28:50;;;;;;;5.00;3.30;;;;;;;22.89;63.16;98925.31;106602;1266;72715;-39
2023/07/30 08:31:17;;;;;;;4.90;3.40;;;;;;;22.83;63.88;98923.52;106425;1266;377340;-39
2023/07/30 08:33:45;;;;;;;5.00;3.10;;;;;;;22.79;64.84;98925.66;106757;1264;59260;-39
2023/07/30 08:36:13;;;;;;;6.90;2.90;;;;;;;22.76;65.19;98925.63;106733;1264;70944;-39
2023/07/30 08:38:40;;;;;;;3.20;2.60;;;;;;;22.72;65.35;98925.77;106722;1263;66627;-39
2023/07/30 08:41:08;;;;;;;4.00;3.10;;;;;;;22.72;65.77;98923.19;106705;1266;72645;-39
2023/07/30 08:43:36;;;;;;;3.20;2.90;;;;;;;22.72;65.92;98920.97;106712;1264;60055;-39
2023/07/30 08:46:04;;;;;;;3.70;3.30;;;;;;;22.70;66.08;98918.65;106723;1263;60064;-39
2023/07/30 08:48:32;;;;;;;4.10;3.40;;;;;;;22.71;65.63;98918.73;106699;1269;73196;-40
2023/07/30 08:50:59;;;;;;;4.00;3.10;;;;;;;22.68;65.72;98920.55;106761;1261;67573;-40
2023/07/30 08:53:27;;;;;;;4.00;3.30;;;;;;;22.60;65.95;98919.20;107309;1259;72574;-40
2023/07/30 08:55:55;;;;;;;3.30;2.90;;;;;;;22.57;66.61;98912.49;107401;1254;59698;-40
2023/07/30 08:58:23;;;;;;;5.90;3.40;;;;;;;22.58;66.75;98907.41;107375;1259;59520;-40
2023/07/30 09:00:51;;;;;;;3.70;3.30;;;;;;;22.62;67.59;98903.48;107482;1254;73052;-40
2023/07/30 09:03:19;;;;;;;3.40;3.10;;;;;;;22.67;68.02;98899.82;107510;1254;67566;-40
2023/07/30 09:05:47;;;;;;;7.30;3.50;;;;;;;22.70;67.96;98899.39;107467;1253;71084;-40
2023/07/30 09:08:15;;;;;;;3.40;3.10;;;;;;;22.71;67.76;98895.02;107453;1252;61711;-39
2023/07/30 09:14:05;;;;;;;3.10;2.80;;;;;;;22.80;67.29;98895.92;107407;1254;73077;-40
2023/07/30 09:16:32;;;;;;;2.80;2.60;;;;;;;22.80;67.51;98893.10;107233;1256;66859;-40
2023/07/30 09:19:00;;;;;;;3.40;3.10;;;;;;;22.82;67.33;98898.40;107201;1254;72699;-40
2023/07/30 09:21:31;;;;;;;4.50;2.70;;;;;;;22.84;67.68;98895.63;107206;1256;60043;-40
2023/07/30 09:24:05;;;;;;;3.50;2.70;;;;;;;22.88;68.46;98891.45;107179;1257;60009;-40
2023/07/30 09:26:43;;;;;;;3.00;2.70;;;;;;;22.98;68.47;98890.91;107378;1256;73489;-41
2023/07/30 09:29:11;;;;;;;4.00;2.70;;;;;;;23.12;68.29;98879.39;107299;1256;67590;-41
2023/07/30 09:31:50;;;;;;;3.20;2.70;;;;;;;23.22;67.38;98873.45;107395;1257;72721;-40
2023/07/30 09:34:18;;;;;;;3.10;2.80;;;;;;;23.33;67.09;98875.68;107298;1257;59732;-40
2023/07/30 09:36:46;;;;;;;5.40;3.00;;;;;;;23.42;66.96;98871.04;107332;1256;60084;-41
2023/07/30 09:39:19;;;;;;;3.70;2.90;;;;;;;23.53;66.18;98866.09;107203;1256;73088;-40
2023/07/30 09:41:46;;;;;;;;;;;;;;;23.61;65.77;98862.05;107322;1254;67540;-41
2023/07/30 09:44:19;;;;;;;4.30;2.60;;;;;;;23.68;65.52;98859.23;107236;1255;71846;-40
2023/07/30 09:46:50;;;;;;;3.50;2.90;;;;;;;23.79;65.62;98854.34;107159;1256;59714;-41
2023/07/30 09:49:21;;;;;;;3.20;2.80;;;;;;;23.93;65.00;98851.60;107112;1256;62224;-40
2023/07/30 09:51:53;;;;;;;2.80;2.50;;;;;;;24.04;64.56;98848.98;107133;1257;73288;-39
2023/07/30 09:54:22;;;;;;;3.90;3.10;;;;;;;24.16;64.02;98850.68;107205;1256;66772;-39
2023/07/30 09:56:55;;;;;;;4.20;3.00;;;;;;;24.30;63.39;98852.75;107425;1254;72758;-39
2023/07/30 09:59:24;;;;;;;3.30;3.00;;;;;;;24.43;62.26;98848.75;107195;1256;59623;-39
2023/07/30 10:01:53;;;;;;;4.00;3.60;;;;;;;24.55;61.56;98844.23;107282;1256;60022;-39
2023/07/30 10:04:21;;;;;;;5.00;3.20;;;;;;;24.65;61.45;98843.45;107340;1256;71815;-40
2023/07/30 10:06:59;;;;;;;4.00;2.80;;;;;;;24.78;61.24;98836.35;107331;1256;67981;-39
2023/07/30 10:09:30;;;;;;;3.80;3.00;;;;;;;24.97;60.56;98835.41;107285;1257;72699;-39
2023/07/30 10:11:57;;;;;;;4.50;3.80;;;;;;;25.14;60.05;98827.29;107105;1259;60071;-39
2023/07/30 10:14:25;;;;;;;3.60;3.10;;;;;;;25.30;59.25;98825.77;107105;1260;60164;-39
2023/07/30 10:16:53;;;;;;;4.40;2.90;;;;;;;25.47;58.83;98820.41;107371;1253;73024;-39
2023/07/30 10:19:28;;;;;;;3.40;3.10;;;;;;;25.63;58.43;98814.16;107435;1253;66429;-39
2023/07/30 10:22:11;;;;;;;4.10;3.20;;;;;;;25.76;57.89;98809.52;107355;1255;71389;-39
2023/07/30 10:24:39;;;;;;;3.40;3.00;;;;;;;25.90;57.77;98803.53;107367;1257;60072;-39
2023/07/30 10:27:08;;;;;;;3.60;2.90;;;;;;;26.05;57.84;98807.70;107394;1254;59365;-39
2023/07/30 10:29:36;;;;;;;5.90;3.50;;;;;;;26.20;57.39;98808.33;107453;1254;73061;-39
2023/07/30 10:32:04;;;;;;;5.70;3.20;;;;;;;26.32;56.80;98796.58;107528;1253;67561;-39
2023/07/30 10:34:47;;;;;;;4.10;3.40;;;;;;;26.41;56.74;98795.36;107477;1256;71426;-39
2023/07/30 10:37:18;;;;;;;6.00;3.70;;;;;;;26.49;56.07;98794.09;107432;1254;59673;-39
2023/07/30 10:39:49;;;;;;;3.80;3.20;;;;;;;26.56;55.72;98792.17;107530;1253;60601;-39
2023/07/30 10:42:18;;;;;;;4.50;3.20;;;;;;;26.71;56.44;98784.58;107491;1259;72334;-39
2023/07/30 10:44:46;;;;;;;5.10;3.40;;;;;;;26.97;56.32;98785.37;107502;1254;66765;-39
2023/07/30 10:47:13;;;;;;;4.10;2.80;;;;;;;27.25;55.34;98782.88;107461;1257;72658;-39
2023/07/30 10:50:01;;;;;;;3.80;3.20;;;;;;;27.56;52.98;98787.64;107484;1253;60082;-39
2023/07/30 10:52:29;;;;;;;4.90;3.10;;;;;;;27.76;52.56;98787.41;107328;1253;60089;-39
2023/07/30 10:55:00;;;;;;;4.70;3.00;;;;;;;27.98;52.83;98787.70;107468;1254;73066;-39
2023/07/30 10:57:34;;;;;;;3.50;2.90;;;;;;;28.22;52.90;98782.89;107531;1253;66308;-39
2023/07/30 11:00:02;;;;;;;3.70;3.30;;;;;;;28.42;50.65;98781.84;107493;1254;72753;-39
2023/07/30 11:02:30;;;;;;;7.30;3.40;;;;;;;28.51;50.92;98777.98;107483;1254;59861;-40
2023/07/30 11:04:58;;;;;;;4.70;3.00;;;;;;;28.54;50.41;98782.51;107405;1253;60480;-39
2023/07/30 11:07:25;;;;;;;4.30;3.10;;;;;;;28.43;50.12;98781.70;107480;1259;73094;-39
2023/07/30 11:10:02;;;;;;;5.40;3.10;;;;;;;28.33;50.21;98779.69;107543;1254;67967;-39
2023/07/30 11:12:32;;;;;;;5.10;2.80;;;;;;;28.24;49.01;98776.88;107544;1254;71385;-41
2023/07/30 11:15:03;;;;;;;3.50;2.70;;;;;;;28.25;50.09;98774.00;107363;1254;61458;-39
2023/07/30 11:17:30;;;;;;;3.20;2.70;;;;;;;28.46;49.77;98768.75;107607;1254;60018;-39
2023/07/30 11:19:58;;;;;;;8.10;3.20;;;;;;;28.71;48.61;98768.50;107362;1254;73051;-39
2023/07/30 11:22:32;;;;;;;4.20;3.00;;;;;;;28.77;48.24;98767.73;107362;1253;66804;-39
2023/07/30 11:25:05;;;;;;;3.80;2.60;;;;;;;28.71;48.92;98762.86;107338;1253;72673;-39
2023/07/30 11:27:46;;;;;;;5.90;3.10;;;;;;;28.72;48.75;98760.27;107284;1254;60049;-39
2023/07/30 11:30:13;;;;;;;9.60;3.50;;;;;;;28.72;48.46;98752.43;107471;1253;59999;-39
2023/07/30 11:32:47;;;;;;;5.10;3.10;;;;;;;28.71;48.78;98751.80;107567;1254;73352;-39
2023/07/30 11:35:15;;;;;;;4.40;3.10;;;;;;;28.64;48.94;98747.93;107505;1253;67558;-39